sensor_id;sensor_type;location;lat;lon;timestamp;P1;durP1;ratioP1;P2;durP2;ratioP2
51943;SDS011;37969;53.132;6.370;2022-08-23T00:02:12;7.50;;;3.40;;
51943;SDS011;37969;53.132;6.370;2022-08-23T00:04:41;8.60;;;3.78;;
51943;SDS011;37969;53.132;6.370;2022-08-23T00:07:11;8.20;;;3.90;;
51943;SDS011;37969;53.132;6.370;2022-08-23T00:09:41;3.90;;;3.13;;
51943;SDS011;37969;53.132;6.370;2022-08-23T00:14:35;5.22;;;3.33;;
51943;SDS011;37969;53.132;6.370;2022-08-23T00:17:04;6.55;;;3.58;;
51943;SDS011;37969;53.132;6.370;2022-08-23T00:19:33;8.50;;;4.32;;
51943;SDS011;37969;53.132;6.370;2022-08-23T00:22:04;4.00;;;3.60;;
51943;SDS011;37969;53.132;6.370;2022-08-23T00:24:31;8.18;;;3.95;;
51943;SDS011;37969;53.132;6.370;2022-08-23T00:27:01;5.15;;;3.35;;
51943;SDS011;37969;53.132;6.370;2022-08-23T00:29:33;6.75;;;4.00;;
51943;SDS011;37969;53.132;6.370;2022-08-23T00:32:03;9.32;;;3.20;;
51943;SDS011;37969;53.132;6.370;2022-08-23T00:34:31;6.93;;;4.60;;
51943;SDS011;37969;53.132;6.370;2022-08-23T00:36:59;5.25;;;4.32;;
51943;SDS011;37969;53.132;6.370;2022-08-23T00:39:28;5.35;;;4.38;;
51943;SDS011;37969;53.132;6.370;2022-08-23T00:41:56;5.25;;;3.20;;
51943;SDS011;37969;53.132;6.370;2022-08-23T00:44:46;4.90;;;3.35;;
51943;SDS011;37969;53.132;6.370;2022-08-23T00:47:31;7.70;;;3.20;;
51943;SDS011;37969;53.132;6.370;2022-08-23T00:50:08;3.53;;;3.22;;
51943;SDS011;37969;53.132;6.370;2022-08-23T00:52:39;4.90;;;3.03;;
51943;SDS011;37969;53.132;6.370;2022-08-23T00:55:09;3.45;;;3.00;;
51943;SDS011;37969;53.132;6.370;2022-08-23T00:57:40;3.75;;;3.40;;
51943;SDS011;37969;53.132;6.370;2022-08-23T01:00:10;10.93;;;5.43;;
51943;SDS011;37969;53.132;6.370;2022-08-23T01:02:36;10.25;;;7.65;;
51943;SDS011;37969;53.132;6.370;2022-08-23T01:05:03;9.00;;;6.30;;
51943;SDS011;37969;53.132;6.370;2022-08-23T01:07:35;7.80;;;6.25;;
51943;SDS011;37969;53.132;6.370;2022-08-23T01:10:06;11.38;;;7.85;;
51943;SDS011;37969;53.132;6.370;2022-08-23T01:12:38;19.58;;;9.65;;
51943;SDS011;37969;53.132;6.370;2022-08-23T01:17:47;12.10;;;8.30;;
51943;SDS011;37969;53.132;6.370;2022-08-23T01:20:16;13.60;;;9.00;;
51943;SDS011;37969;53.132;6.370;2022-08-23T01:25:26;9.95;;;8.48;;
51943;SDS011;37969;53.132;6.370;2022-08-23T01:27:53;10.63;;;8.77;;
51943;SDS011;37969;53.132;6.370;2022-08-23T01:30:23;10.07;;;9.07;;
51943;SDS011;37969;53.132;6.370;2022-08-23T01:32:52;12.75;;;9.55;;
51943;SDS011;37969;53.132;6.370;2022-08-23T01:35:19;17.33;;;10.38;;
51943;SDS011;37969;53.132;6.370;2022-08-23T01:37:51;17.60;;;11.02;;
51943;SDS011;37969;53.132;6.370;2022-08-23T01:40:18;13.93;;;10.02;;
51943;SDS011;37969;53.132;6.370;2022-08-23T01:42:45;13.10;;;11.75;;
51943;SDS011;37969;53.132;6.370;2022-08-23T01:45:13;10.00;;;8.43;;
51943;SDS011;37969;53.132;6.370;2022-08-23T01:47:40;6.47;;;5.88;;
51943;SDS011;37969;53.132;6.370;2022-08-23T01:50:08;7.68;;;7.03;;
51943;SDS011;37969;53.132;6.370;2022-08-23T01:52:39;13.70;;;12.50;;
51943;SDS011;37969;53.132;6.370;2022-08-23T01:55:08;12.35;;;11.07;;
51943;SDS011;37969;53.132;6.370;2022-08-23T01:57:38;9.70;;;8.70;;
51943;SDS011;37969;53.132;6.370;2022-08-23T02:00:05;10.07;;;7.20;;
51943;SDS011;37969;53.132;6.370;2022-08-23T02:02:32;8.13;;;7.28;;
51943;SDS011;37969;53.132;6.370;2022-08-23T02:04:59;7.00;;;6.30;;
51943;SDS011;37969;53.132;6.370;2022-08-23T02:07:29;7.95;;;7.25;;
51943;SDS011;37969;53.132;6.370;2022-08-23T02:09:58;10.45;;;8.55;;
51943;SDS011;37969;53.132;6.370;2022-08-23T02:12:27;9.55;;;8.65;;
51943;SDS011;37969;53.132;6.370;2022-08-23T02:14:59;11.45;;;8.30;;
51943;SDS011;37969;53.132;6.370;2022-08-23T02:17:27;9.98;;;7.95;;
51943;SDS011;37969;53.132;6.370;2022-08-23T02:19:55;9.73;;;7.68;;
51943;SDS011;37969;53.132;6.370;2022-08-23T02:22:22;8.98;;;7.35;;
51943;SDS011;37969;53.132;6.370;2022-08-23T02:24:52;9.25;;;7.40;;
51943;SDS011;37969;53.132;6.370;2022-08-23T02:27:18;14.85;;;8.38;;
51943;SDS011;37969;53.132;6.370;2022-08-23T02:29:45;10.27;;;8.20;;
51943;SDS011;37969;53.132;6.370;2022-08-23T02:32:14;17.02;;;11.15;;
51943;SDS011;37969;53.132;6.370;2022-08-23T02:34:42;11.07;;;8.95;;
51943;SDS011;37969;53.132;6.370;2022-08-23T02:37:11;12.55;;;9.07;;
51943;SDS011;37969;53.132;6.370;2022-08-23T02:39:41;10.98;;;7.30;;
51943;SDS011;37969;53.132;6.370;2022-08-23T02:42:07;8.80;;;7.97;;
51943;SDS011;37969;53.132;6.370;2022-08-23T02:44:39;9.90;;;8.40;;
51943;SDS011;37969;53.132;6.370;2022-08-23T02:47:06;6.85;;;6.15;;
51943;SDS011;37969;53.132;6.370;2022-08-23T02:49:38;9.82;;;8.93;;
51943;SDS011;37969;53.132;6.370;2022-08-23T02:52:07;10.75;;;9.65;;
51943;SDS011;37969;53.132;6.370;2022-08-23T02:54:34;8.88;;;7.97;;
51943;SDS011;37969;53.132;6.370;2022-08-23T02:57:01;11.65;;;10.15;;
51943;SDS011;37969;53.132;6.370;2022-08-23T02:59:28;12.80;;;9.43;;
51943;SDS011;37969;53.132;6.370;2022-08-23T03:01:55;14.05;;;10.05;;
51943;SDS011;37969;53.132;6.370;2022-08-23T03:04:24;17.27;;;10.60;;
51943;SDS011;37969;53.132;6.370;2022-08-23T03:06:51;13.25;;;10.77;;
51943;SDS011;37969;53.132;6.370;2022-08-23T03:09:19;16.85;;;11.43;;
51943;SDS011;37969;53.132;6.370;2022-08-23T03:11:46;14.23;;;10.23;;
51943;SDS011;37969;53.132;6.370;2022-08-23T03:14:14;13.05;;;8.77;;
51943;SDS011;37969;53.132;6.370;2022-08-23T03:16:40;12.38;;;8.20;;
51943;SDS011;37969;53.132;6.370;2022-08-23T03:19:07;8.38;;;6.50;;
51943;SDS011;37969;53.132;6.370;2022-08-23T03:21:34;9.43;;;8.50;;
51943;SDS011;37969;53.132;6.370;2022-08-23T03:24:01;14.40;;;10.88;;
51943;SDS011;37969;53.132;6.370;2022-08-23T03:26:28;16.75;;;11.93;;
51943;SDS011;37969;53.132;6.370;2022-08-23T03:28:55;12.23;;;9.13;;
51943;SDS011;37969;53.132;6.370;2022-08-23T03:31:24;13.77;;;8.85;;
51943;SDS011;37969;53.132;6.370;2022-08-23T03:33:51;15.93;;;9.88;;
51943;SDS011;37969;53.132;6.370;2022-08-23T03:36:17;13.18;;;8.38;;
51943;SDS011;37969;53.132;6.370;2022-08-23T03:38:44;12.05;;;8.30;;
51943;SDS011;37969;53.132;6.370;2022-08-23T03:41:10;13.55;;;9.80;;
51943;SDS011;37969;53.132;6.370;2022-08-23T03:43:37;9.68;;;8.25;;
51943;SDS011;37969;53.132;6.370;2022-08-23T03:46:05;10.57;;;8.30;;
51943;SDS011;37969;53.132;6.370;2022-08-23T03:48:32;11.27;;;8.73;;
51943;SDS011;37969;53.132;6.370;2022-08-23T03:50:58;11.90;;;8.45;;
51943;SDS011;37969;53.132;6.370;2022-08-23T03:53:24;13.48;;;9.35;;
51943;SDS011;37969;53.132;6.370;2022-08-23T03:55:51;11.93;;;8.75;;
51943;SDS011;37969;53.132;6.370;2022-08-23T03:58:20;15.32;;;10.15;;
51943;SDS011;37969;53.132;6.370;2022-08-23T04:00:47;16.23;;;12.00;;
51943;SDS011;37969;53.132;6.370;2022-08-23T04:03:13;18.98;;;10.98;;
51943;SDS011;37969;53.132;6.370;2022-08-23T04:05:42;11.60;;;10.38;;
51943;SDS011;37969;53.132;6.370;2022-08-23T04:08:09;10.52;;;9.20;;
51943;SDS011;37969;53.132;6.370;2022-08-23T04:10:38;11.87;;;9.00;;
51943;SDS011;37969;53.132;6.370;2022-08-23T04:13:05;26.00;;;13.75;;
51943;SDS011;37969;53.132;6.370;2022-08-23T04:15:37;23.35;;;16.52;;
51943;SDS011;37969;53.132;6.370;2022-08-23T04:18:04;22.00;;;14.65;;
51943;SDS011;37969;53.132;6.370;2022-08-23T04:20:30;22.08;;;15.43;;
51943;SDS011;37969;53.132;6.370;2022-08-23T04:22:58;18.08;;;13.85;;
51943;SDS011;37969;53.132;6.370;2022-08-23T04:25:24;13.55;;;11.27;;
51943;SDS011;37969;53.132;6.370;2022-08-23T04:27:51;15.10;;;10.45;;
51943;SDS011;37969;53.132;6.370;2022-08-23T04:30:18;16.13;;;13.50;;
51943;SDS011;37969;53.132;6.370;2022-08-23T04:32:46;16.60;;;12.93;;
51943;SDS011;37969;53.132;6.370;2022-08-23T04:35:14;22.38;;;16.70;;
51943;SDS011;37969;53.132;6.370;2022-08-23T04:37:46;18.35;;;14.90;;
51943;SDS011;37969;53.132;6.370;2022-08-23T04:40:12;19.70;;;14.45;;
51943;SDS011;37969;53.132;6.370;2022-08-23T04:42:57;14.73;;;12.82;;
51943;SDS011;37969;53.132;6.370;2022-08-23T04:45:27;14.70;;;11.80;;
51943;SDS011;37969;53.132;6.370;2022-08-23T04:47:55;21.40;;;13.32;;
51943;SDS011;37969;53.132;6.370;2022-08-23T04:50:27;17.42;;;11.65;;
51943;SDS011;37969;53.132;6.370;2022-08-23T04:52:53;10.30;;;8.70;;
51943;SDS011;37969;53.132;6.370;2022-08-23T04:55:19;117.13;;;8.85;;
51943;SDS011;37969;53.132;6.370;2022-08-23T04:57:46;17.88;;;7.20;;
51943;SDS011;37969;53.132;6.370;2022-08-23T05:00:16;10.43;;;9.32;;
51943;SDS011;37969;53.132;6.370;2022-08-23T05:02:43;14.60;;;12.70;;
51943;SDS011;37969;53.132;6.370;2022-08-23T05:05:10;12.52;;;11.32;;
51943;SDS011;37969;53.132;6.370;2022-08-23T05:07:40;13.55;;;11.70;;
51943;SDS011;37969;53.132;6.370;2022-08-23T05:10:10;11.68;;;10.48;;
51943;SDS011;37969;53.132;6.370;2022-08-23T05:12:40;18.45;;;12.30;;
51943;SDS011;37969;53.132;6.370;2022-08-23T05:15:10;18.80;;;12.57;;
51943;SDS011;37969;53.132;6.370;2022-08-23T05:17:38;17.27;;;14.70;;
51943;SDS011;37969;53.132;6.370;2022-08-23T05:20:05;18.25;;;16.35;;
51943;SDS011;37969;53.132;6.370;2022-08-23T05:22:33;18.88;;;16.05;;
51943;SDS011;37969;53.132;6.370;2022-08-23T05:24:59;19.73;;;17.08;;
51943;SDS011;37969;53.132;6.370;2022-08-23T05:27:26;23.10;;;17.52;;
51943;SDS011;37969;53.132;6.370;2022-08-23T05:29:53;24.75;;;20.35;;
51943;SDS011;37969;53.132;6.370;2022-08-23T05:32:19;25.17;;;20.55;;
51943;SDS011;37969;53.132;6.370;2022-08-23T05:34:46;27.25;;;22.33;;
51943;SDS011;37969;53.132;6.370;2022-08-23T05:37:12;33.80;;;25.00;;
51943;SDS011;37969;53.132;6.370;2022-08-23T05:39:41;33.00;;;25.23;;
51943;SDS011;37969;53.132;6.370;2022-08-23T05:42:14;30.60;;;23.75;;
51943;SDS011;37969;53.132;6.370;2022-08-23T05:44:43;36.25;;;27.85;;
51943;SDS011;37969;53.132;6.370;2022-08-23T05:47:10;34.30;;;26.17;;
51943;SDS011;37969;53.132;6.370;2022-08-23T05:49:39;33.25;;;23.63;;
51943;SDS011;37969;53.132;6.370;2022-08-23T05:52:07;33.65;;;23.58;;
51943;SDS011;37969;53.132;6.370;2022-08-23T05:54:34;30.00;;;24.02;;
51943;SDS011;37969;53.132;6.370;2022-08-23T05:57:00;30.15;;;23.30;;
51943;SDS011;37969;53.132;6.370;2022-08-23T05:59:26;27.63;;;23.20;;
51943;SDS011;37969;53.132;6.370;2022-08-23T06:01:52;30.05;;;22.35;;
51943;SDS011;37969;53.132;6.370;2022-08-23T06:04:19;27.20;;;23.08;;
51943;SDS011;37969;53.132;6.370;2022-08-23T06:06:46;26.45;;;22.02;;
51943;SDS011;37969;53.132;6.370;2022-08-23T06:09:16;24.88;;;22.25;;
51943;SDS011;37969;53.132;6.370;2022-08-23T06:11:44;26.30;;;23.33;;
51943;SDS011;37969;53.132;6.370;2022-08-23T06:14:15;34.80;;;23.40;;
51943;SDS011;37969;53.132;6.370;2022-08-23T06:16:43;22.95;;;20.55;;
51943;SDS011;37969;53.132;6.370;2022-08-23T06:19:11;26.10;;;21.90;;
51943;SDS011;37969;53.132;6.370;2022-08-23T06:21:38;22.67;;;20.33;;
51943;SDS011;37969;53.132;6.370;2022-08-23T06:24:09;22.17;;;19.73;;
51943;SDS011;37969;53.132;6.370;2022-08-23T06:26:38;28.42;;;20.23;;
51943;SDS011;37969;53.132;6.370;2022-08-23T06:29:08;23.40;;;19.42;;
51943;SDS011;37969;53.132;6.370;2022-08-23T06:31:37;24.00;;;20.67;;
51943;SDS011;37969;53.132;6.370;2022-08-23T06:34:20;21.10;;;18.90;;
51943;SDS011;37969;53.132;6.370;2022-08-23T06:36:53;24.35;;;18.85;;
51943;SDS011;37969;53.132;6.370;2022-08-23T06:39:22;22.05;;;18.00;;
51943;SDS011;37969;53.132;6.370;2022-08-23T06:44:18;18.08;;;16.27;;
51943;SDS011;37969;53.132;6.370;2022-08-23T06:46:45;20.30;;;15.65;;
51943;SDS011;37969;53.132;6.370;2022-08-23T06:49:13;16.30;;;14.48;;
51943;SDS011;37969;53.132;6.370;2022-08-23T06:51:41;16.40;;;14.70;;
51943;SDS011;37969;53.132;6.370;2022-08-23T06:54:10;19.05;;;15.20;;
51943;SDS011;37969;53.132;6.370;2022-08-23T06:56:44;15.88;;;14.25;;
51943;SDS011;37969;53.132;6.370;2022-08-23T06:59:18;17.73;;;14.38;;
51943;SDS011;37969;53.132;6.370;2022-08-23T07:01:48;16.80;;;15.00;;
51943;SDS011;37969;53.132;6.370;2022-08-23T07:04:19;18.77;;;13.63;;
51943;SDS011;37969;53.132;6.370;2022-08-23T07:06:54;16.15;;;13.05;;
51943;SDS011;37969;53.132;6.370;2022-08-23T07:09:20;18.77;;;13.02;;
51943;SDS011;37969;53.132;6.370;2022-08-23T07:11:51;13.80;;;12.45;;
51943;SDS011;37969;53.132;6.370;2022-08-23T07:14:20;14.88;;;11.93;;
51943;SDS011;37969;53.132;6.370;2022-08-23T07:16:50;12.93;;;11.00;;
51943;SDS011;37969;53.132;6.370;2022-08-23T07:19:18;15.57;;;11.27;;
51943;SDS011;37969;53.132;6.370;2022-08-23T07:21:45;10.30;;;9.23;;
51943;SDS011;37969;53.132;6.370;2022-08-23T07:24:11;11.90;;;9.52;;
51943;SDS011;37969;53.132;6.370;2022-08-23T07:26:38;10.95;;;8.82;;
51943;SDS011;37969;53.132;6.370;2022-08-23T07:29:09;11.18;;;8.13;;
51943;SDS011;37969;53.132;6.370;2022-08-23T07:31:39;13.30;;;9.10;;
51943;SDS011;37969;53.132;6.370;2022-08-23T07:34:06;8.40;;;7.47;;
51943;SDS011;37969;53.132;6.370;2022-08-23T07:36:33;12.18;;;8.02;;
51943;SDS011;37969;53.132;6.370;2022-08-23T07:39:00;8.65;;;7.70;;
51943;SDS011;37969;53.132;6.370;2022-08-23T07:41:27;11.57;;;7.30;;
51943;SDS011;37969;53.132;6.370;2022-08-23T07:44:00;10.77;;;6.88;;
51943;SDS011;37969;53.132;6.370;2022-08-23T07:46:30;11.20;;;6.68;;
51943;SDS011;37969;53.132;6.370;2022-08-23T07:48:58;16.30;;;6.28;;
51943;SDS011;37969;53.132;6.370;2022-08-23T07:51:31;7.10;;;6.05;;
51943;SDS011;37969;53.132;6.370;2022-08-23T07:54:00;10.93;;;5.88;;
51943;SDS011;37969;53.132;6.370;2022-08-23T07:56:28;12.75;;;5.88;;
51943;SDS011;37969;53.132;6.370;2022-08-23T07:58:55;9.95;;;5.72;;
51943;SDS011;37969;53.132;6.370;2022-08-23T08:01:26;8.05;;;5.30;;
51943;SDS011;37969;53.132;6.370;2022-08-23T08:03:53;10.10;;;5.38;;
51943;SDS011;37969;53.132;6.370;2022-08-23T08:06:33;12.68;;;5.13;;
51943;SDS011;37969;53.132;6.370;2022-08-23T08:09:02;8.70;;;4.75;;
51943;SDS011;37969;53.132;6.370;2022-08-23T08:11:32;7.25;;;4.20;;
51943;SDS011;37969;53.132;6.370;2022-08-23T08:13:59;8.60;;;4.18;;
51943;SDS011;37969;53.132;6.370;2022-08-23T08:16:29;7.88;;;4.20;;
51943;SDS011;37969;53.132;6.370;2022-08-23T08:19:01;9.73;;;4.20;;
51943;SDS011;37969;53.132;6.370;2022-08-23T08:21:31;5.97;;;3.70;;
51943;SDS011;37969;53.132;6.370;2022-08-23T08:23:59;7.97;;;4.15;;
51943;SDS011;37969;53.132;6.370;2022-08-23T08:26:29;7.82;;;3.97;;
51943;SDS011;37969;53.132;6.370;2022-08-23T08:29:04;10.77;;;4.05;;
51943;SDS011;37969;53.132;6.370;2022-08-23T08:31:30;7.60;;;3.40;;
51943;SDS011;37969;53.132;6.370;2022-08-23T08:34:02;8.95;;;3.97;;
51943;SDS011;37969;53.132;6.370;2022-08-23T08:39:03;6.32;;;3.28;;
51943;SDS011;37969;53.132;6.370;2022-08-23T08:44:34;6.80;;;3.17;;
51943;SDS011;37969;53.132;6.370;2022-08-23T08:47:06;7.40;;;3.75;;
51943;SDS011;37969;53.132;6.370;2022-08-23T08:54:32;5.72;;;3.35;;
51943;SDS011;37969;53.132;6.370;2022-08-23T08:57:00;6.45;;;3.50;;
51943;SDS011;37969;53.132;6.370;2022-08-23T08:59:29;7.38;;;3.35;;
51943;SDS011;37969;53.132;6.370;2022-08-23T09:02:04;7.20;;;3.03;;
51943;SDS011;37969;53.132;6.370;2022-08-23T09:04:33;6.30;;;3.05;;
51943;SDS011;37969;53.132;6.370;2022-08-23T09:09:46;7.25;;;2.97;;
51943;SDS011;37969;53.132;6.370;2022-08-23T09:12:23;8.43;;;2.72;;
51943;SDS011;37969;53.132;6.370;2022-08-23T09:17:46;5.45;;;3.08;;
51943;SDS011;37969;53.132;6.370;2022-08-23T09:20:15;11.07;;;3.72;;
51943;SDS011;37969;53.132;6.370;2022-08-23T09:22:45;8.40;;;2.80;;
51943;SDS011;37969;53.132;6.370;2022-08-23T09:25:13;7.47;;;2.65;;
51943;SDS011;37969;53.132;6.370;2022-08-23T09:27:41;6.68;;;3.33;;
51943;SDS011;37969;53.132;6.370;2022-08-23T09:30:09;13.20;;;2.75;;
51943;SDS011;37969;53.132;6.370;2022-08-23T09:32:37;7.35;;;2.90;;
51943;SDS011;37969;53.132;6.370;2022-08-23T09:37:43;6.78;;;2.78;;
51943;SDS011;37969;53.132;6.370;2022-08-23T09:40:17;5.80;;;2.73;;
51943;SDS011;37969;53.132;6.370;2022-08-23T09:45:32;5.07;;;2.72;;
51943;SDS011;37969;53.132;6.370;2022-08-23T09:47:59;4.53;;;2.92;;
51943;SDS011;37969;53.132;6.370;2022-08-23T09:50:28;6.25;;;3.22;;
51943;SDS011;37969;53.132;6.370;2022-08-23T09:52:58;9.10;;;2.60;;
51943;SDS011;37969;53.132;6.370;2022-08-23T09:57:55;8.07;;;2.90;;
51943;SDS011;37969;53.132;6.370;2022-08-23T10:00:29;5.70;;;2.80;;
51943;SDS011;37969;53.132;6.370;2022-08-23T10:03:23;5.78;;;2.47;;
51943;SDS011;37969;53.132;6.370;2022-08-23T10:05:54;5.35;;;2.83;;
51943;SDS011;37969;53.132;6.370;2022-08-23T10:08:25;5.18;;;2.60;;
51943;SDS011;37969;53.132;6.370;2022-08-23T10:10:52;8.95;;;2.90;;
51943;SDS011;37969;53.132;6.370;2022-08-23T10:13:19;5.10;;;2.40;;
51943;SDS011;37969;53.132;6.370;2022-08-23T10:20:46;4.25;;;2.20;;
51943;SDS011;37969;53.132;6.370;2022-08-23T10:23:22;5.57;;;2.30;;
51943;SDS011;37969;53.132;6.370;2022-08-23T10:25:57;3.80;;;2.28;;
51943;SDS011;37969;53.132;6.370;2022-08-23T10:34:23;5.72;;;2.65;;
51943;SDS011;37969;53.132;6.370;2022-08-23T10:36:59;5.50;;;2.40;;
51943;SDS011;37969;53.132;6.370;2022-08-23T10:39:29;6.22;;;2.42;;
51943;SDS011;37969;53.132;6.370;2022-08-23T10:42:03;5.72;;;2.50;;
51943;SDS011;37969;53.132;6.370;2022-08-23T10:44:37;3.63;;;2.00;;
51943;SDS011;37969;53.132;6.370;2022-08-23T10:47:11;7.47;;;2.80;;
51943;SDS011;37969;53.132;6.370;2022-08-23T10:49:42;7.18;;;2.50;;
51943;SDS011;37969;53.132;6.370;2022-08-23T10:52:11;6.80;;;2.40;;
51943;SDS011;37969;53.132;6.370;2022-08-23T10:54:47;5.43;;;2.08;;
51943;SDS011;37969;53.132;6.370;2022-08-23T10:57:28;6.93;;;2.25;;
51943;SDS011;37969;53.132;6.370;2022-08-23T10:59:58;11.23;;;2.50;;
51943;SDS011;37969;53.132;6.370;2022-08-23T11:02:30;6.07;;;2.30;;
51943;SDS011;37969;53.132;6.370;2022-08-23T11:05:03;6.85;;;2.45;;
51943;SDS011;37969;53.132;6.370;2022-08-23T11:07:34;3.20;;;1.98;;
51943;SDS011;37969;53.132;6.370;2022-08-23T11:10:14;6.15;;;2.40;;
51943;SDS011;37969;53.132;6.370;2022-08-23T11:12:50;4.80;;;1.88;;
51943;SDS011;37969;53.132;6.370;2022-08-23T11:15:18;5.95;;;2.75;;
51943;SDS011;37969;53.132;6.370;2022-08-23T11:20:58;6.60;;;2.38;;
51943;SDS011;37969;53.132;6.370;2022-08-23T11:25:59;3.78;;;2.22;;
51943;SDS011;37969;53.132;6.370;2022-08-23T11:33:25;4.40;;;2.13;;
51943;SDS011;37969;53.132;6.370;2022-08-23T11:35:54;4.40;;;2.47;;
51943;SDS011;37969;53.132;6.370;2022-08-23T11:41:16;5.85;;;2.28;;
51943;SDS011;37969;53.132;6.370;2022-08-23T11:43:49;3.50;;;2.08;;
51943;SDS011;37969;53.132;6.370;2022-08-23T11:46:35;6.55;;;2.50;;
51943;SDS011;37969;53.132;6.370;2022-08-23T11:49:27;6.28;;;2.33;;
51943;SDS011;37969;53.132;6.370;2022-08-23T11:51:59;7.38;;;2.30;;
51943;SDS011;37969;53.132;6.370;2022-08-23T11:54:46;6.88;;;2.30;;
51943;SDS011;37969;53.132;6.370;2022-08-23T12:07:53;4.70;;;2.42;;
51943;SDS011;37969;53.132;6.370;2022-08-23T12:18:32;5.35;;;2.55;;
51943;SDS011;37969;53.132;6.370;2022-08-23T12:21:02;4.00;;;2.00;;
51943;SDS011;37969;53.132;6.370;2022-08-23T12:23:40;6.50;;;2.40;;
51943;SDS011;37969;53.132;6.370;2022-08-23T12:26:10;6.88;;;2.22;;
51943;SDS011;37969;53.132;6.370;2022-08-23T12:33:36;4.72;;;2.30;;
51943;SDS011;37969;53.132;6.370;2022-08-23T12:36:14;7.97;;;2.50;;
51943;SDS011;37969;53.132;6.370;2022-08-23T12:43:53;7.93;;;2.20;;
51943;SDS011;37969;53.132;6.370;2022-08-23T12:46:30;5.18;;;2.47;;
51943;SDS011;37969;53.132;6.370;2022-08-23T12:48:58;5.50;;;2.80;;
51943;SDS011;37969;53.132;6.370;2022-08-23T12:51:24;5.43;;;2.10;;
51943;SDS011;37969;53.132;6.370;2022-08-23T12:53:59;7.63;;;1.95;;
51943;SDS011;37969;53.132;6.370;2022-08-23T12:56:36;8.73;;;2.63;;
51943;SDS011;37969;53.132;6.370;2022-08-23T12:59:04;8.07;;;2.53;;
51943;SDS011;37969;53.132;6.370;2022-08-23T13:01:33;3.38;;;2.28;;
51943;SDS011;37969;53.132;6.370;2022-08-23T13:04:04;5.57;;;2.15;;
51943;SDS011;37969;53.132;6.370;2022-08-23T13:06:32;7.15;;;2.58;;
51943;SDS011;37969;53.132;6.370;2022-08-23T13:11:30;5.60;;;2.17;;
51943;SDS011;37969;53.132;6.370;2022-08-23T13:13:57;6.80;;;2.42;;
51943;SDS011;37969;53.132;6.370;2022-08-23T13:18:50;5.05;;;2.20;;
51943;SDS011;37969;53.132;6.370;2022-08-23T13:21:18;3.97;;;2.00;;
51943;SDS011;37969;53.132;6.370;2022-08-23T13:23:47;4.97;;;2.40;;
51943;SDS011;37969;53.132;6.370;2022-08-23T13:26:22;10.15;;;2.75;;
51943;SDS011;37969;53.132;6.370;2022-08-23T13:31:57;6.60;;;2.38;;
51943;SDS011;37969;53.132;6.370;2022-08-23T13:36:57;10.80;;;2.47;;
51943;SDS011;37969;53.132;6.370;2022-08-23T13:39:23;4.80;;;2.17;;
51943;SDS011;37969;53.132;6.370;2022-08-23T13:41:49;4.70;;;2.30;;
51943;SDS011;37969;53.132;6.370;2022-08-23T13:44:18;6.78;;;2.42;;
51943;SDS011;37969;53.132;6.370;2022-08-23T13:46:45;4.13;;;2.28;;
51943;SDS011;37969;53.132;6.370;2022-08-23T13:49:18;7.47;;;2.58;;
51943;SDS011;37969;53.132;6.370;2022-08-23T13:54:26;6.15;;;2.45;;
51943;SDS011;37969;53.132;6.370;2022-08-23T13:56:55;3.65;;;2.25;;
51943;SDS011;37969;53.132;6.370;2022-08-23T13:59:29;4.35;;;2.70;;
51943;SDS011;37969;53.132;6.370;2022-08-23T14:01:59;7.53;;;2.53;;
51943;SDS011;37969;53.132;6.370;2022-08-23T14:04:26;7.10;;;2.55;;
51943;SDS011;37969;53.132;6.370;2022-08-23T14:06:53;9.18;;;2.83;;
51943;SDS011;37969;53.132;6.370;2022-08-23T14:09:22;7.40;;;3.00;;
51943;SDS011;37969;53.132;6.370;2022-08-23T14:11:51;4.72;;;2.45;;
51943;SDS011;37969;53.132;6.370;2022-08-23T14:14:19;8.43;;;2.78;;
51943;SDS011;37969;53.132;6.370;2022-08-23T14:16:46;8.38;;;2.30;;
51943;SDS011;37969;53.132;6.370;2022-08-23T14:19:15;15.23;;;3.08;;
51943;SDS011;37969;53.132;6.370;2022-08-23T14:21:41;6.65;;;2.47;;
51943;SDS011;37969;53.132;6.370;2022-08-23T14:24:10;6.75;;;2.30;;
51943;SDS011;37969;53.132;6.370;2022-08-23T14:26:39;4.55;;;2.28;;
51943;SDS011;37969;53.132;6.370;2022-08-23T14:29:07;7.60;;;2.17;;
51943;SDS011;37969;53.132;6.370;2022-08-23T14:31:33;8.18;;;2.95;;
51943;SDS011;37969;53.132;6.370;2022-08-23T14:34:03;4.70;;;2.30;;
51943;SDS011;37969;53.132;6.370;2022-08-23T14:36:32;4.55;;;2.58;;
51943;SDS011;37969;53.132;6.370;2022-08-23T14:39:01;7.65;;;2.72;;
51943;SDS011;37969;53.132;6.370;2022-08-23T14:41:29;7.50;;;2.30;;
51943;SDS011;37969;53.132;6.370;2022-08-23T14:43:56;6.13;;;3.30;;
51943;SDS011;37969;53.132;6.370;2022-08-23T14:46:23;6.43;;;2.70;;
51943;SDS011;37969;53.132;6.370;2022-08-23T14:48:49;9.15;;;2.60;;
51943;SDS011;37969;53.132;6.370;2022-08-23T14:51:33;10.67;;;3.00;;
51943;SDS011;37969;53.132;6.370;2022-08-23T14:54:00;4.25;;;2.70;;
51943;SDS011;37969;53.132;6.370;2022-08-23T14:56:30;7.07;;;3.30;;
51943;SDS011;37969;53.132;6.370;2022-08-23T14:58:58;6.85;;;2.53;;
51943;SDS011;37969;53.132;6.370;2022-08-23T15:01:29;4.18;;;2.42;;
51943;SDS011;37969;53.132;6.370;2022-08-23T15:03:55;8.38;;;2.80;;
51943;SDS011;37969;53.132;6.370;2022-08-23T15:06:21;6.40;;;2.58;;
51943;SDS011;37969;53.132;6.370;2022-08-23T15:08:53;5.90;;;2.70;;
51943;SDS011;37969;53.132;6.370;2022-08-23T15:11:23;9.38;;;3.45;;
51943;SDS011;37969;53.132;6.370;2022-08-23T15:13:49;4.70;;;3.00;;
51943;SDS011;37969;53.132;6.370;2022-08-23T15:16:16;5.18;;;2.78;;
51943;SDS011;37969;53.132;6.370;2022-08-23T15:18:47;6.80;;;3.45;;
51943;SDS011;37969;53.132;6.370;2022-08-23T15:21:18;5.63;;;3.30;;
51943;SDS011;37969;53.132;6.370;2022-08-23T15:23:45;9.82;;;3.22;;
51943;SDS011;37969;53.132;6.370;2022-08-23T15:26:14;5.47;;;2.93;;
51943;SDS011;37969;53.132;6.370;2022-08-23T15:28:46;10.93;;;3.60;;
51943;SDS011;37969;53.132;6.370;2022-08-23T15:31:13;5.63;;;3.00;;
51943;SDS011;37969;53.132;6.370;2022-08-23T15:33:39;3.97;;;2.33;;
51943;SDS011;37969;53.132;6.370;2022-08-23T15:36:06;4.50;;;2.60;;
51943;SDS011;37969;53.132;6.370;2022-08-23T15:38:34;4.07;;;2.60;;
51943;SDS011;37969;53.132;6.370;2022-08-23T15:41:01;6.18;;;2.55;;
51943;SDS011;37969;53.132;6.370;2022-08-23T15:43:27;5.97;;;2.80;;
51943;SDS011;37969;53.132;6.370;2022-08-23T15:46:03;3.97;;;2.50;;
51943;SDS011;37969;53.132;6.370;2022-08-23T15:48:33;5.15;;;3.00;;
51943;SDS011;37969;53.132;6.370;2022-08-23T15:51:01;8.15;;;2.70;;
51943;SDS011;37969;53.132;6.370;2022-08-23T15:53:29;6.15;;;2.63;;
51943;SDS011;37969;53.132;6.370;2022-08-23T15:55:55;14.38;;;3.08;;
51943;SDS011;37969;53.132;6.370;2022-08-23T15:58:22;11.65;;;3.65;;
51943;SDS011;37969;53.132;6.370;2022-08-23T16:00:49;12.43;;;3.38;;
51943;SDS011;37969;53.132;6.370;2022-08-23T16:03:17;7.57;;;2.95;;
51943;SDS011;37969;53.132;6.370;2022-08-23T16:05:44;5.90;;;2.88;;
51943;SDS011;37969;53.132;6.370;2022-08-23T16:08:12;5.90;;;3.10;;
51943;SDS011;37969;53.132;6.370;2022-08-23T16:10:42;4.93;;;2.70;;
51943;SDS011;37969;53.132;6.370;2022-08-23T16:13:08;9.23;;;3.50;;
51943;SDS011;37969;53.132;6.370;2022-08-23T16:15:39;9.15;;;3.60;;
51943;SDS011;37969;53.132;6.370;2022-08-23T16:18:09;8.27;;;3.10;;
51943;SDS011;37969;53.132;6.370;2022-08-23T16:20:36;7.63;;;3.42;;
51943;SDS011;37969;53.132;6.370;2022-08-23T16:23:03;6.75;;;3.17;;
51943;SDS011;37969;53.132;6.370;2022-08-23T16:25:29;8.55;;;3.28;;
51943;SDS011;37969;53.132;6.370;2022-08-23T16:27:56;8.25;;;4.20;;
51943;SDS011;37969;53.132;6.370;2022-08-23T16:30:23;14.02;;;3.65;;
51943;SDS011;37969;53.132;6.370;2022-08-23T16:32:50;6.05;;;3.10;;